sensor_id;sensor_type;location;lat;lon;timestamp;P1;durP1;ratioP1;P2;durP2;ratioP2
9234;SDS011;4652;42.716;23.218;2023-05-10T01:07:54;13.63;;;12.23;;
9234;SDS011;4652;42.716;23.218;2023-05-10T01:14:35;13.43;;;12.03;;
9234;SDS011;4652;42.716;23.218;2023-05-10T01:21:19;11.53;;;10.17;;
9234;SDS011;4652;42.716;23.218;2023-05-10T01:28:16;11.43;;;9.67;;
9234;SDS011;4652;42.716;23.218;2023-05-10T01:35:13;7.87;;;6.70;;
9234;SDS011;4652;42.716;23.218;2023-05-10T01:41:59;11.27;;;10.13;;
9234;SDS011;4652;42.716;23.218;2023-05-10T01:48:47;9.33;;;8.33;;
9234;SDS011;4652;42.716;23.218;2023-05-10T01:55:32;10.00;;;8.87;;
9234;SDS011;4652;42.716;23.218;2023-05-10T02:02:17;10.33;;;9.33;;
9234;SDS011;4652;42.716;23.218;2023-05-10T02:09:01;9.00;;;7.90;;
9234;SDS011;4652;42.716;23.218;2023-05-10T02:15:46;7.57;;;6.87;;
9234;SDS011;4652;42.716;23.218;2023-05-10T02:22:30;6.40;;;5.80;;
9234;SDS011;4652;42.716;23.218;2023-05-10T02:29:13;6.47;;;5.87;;
9234;SDS011;4652;42.716;23.218;2023-05-10T02:35:57;4.33;;;4.00;;
9234;SDS011;4652;42.716;23.218;2023-05-10T02:42:41;6.03;;;5.47;;
9234;SDS011;4652;42.716;23.218;2023-05-10T02:49:25;6.10;;;5.00;;
9234;SDS011;4652;42.716;23.218;2023-05-10T02:56:10;5.67;;;4.97;;
9234;SDS011;4652;42.716;23.218;2023-05-10T03:02:57;5.07;;;4.13;;
9234;SDS011;4652;42.716;23.218;2023-05-10T03:09:39;7.30;;;6.57;;
9234;SDS011;4652;42.716;23.218;2023-05-10T03:16:24;5.77;;;5.20;;
9234;SDS011;4652;42.716;23.218;2023-05-10T03:23:12;5.93;;;5.33;;
9234;SDS011;4652;42.716;23.218;2023-05-10T03:30:01;7.10;;;5.37;;
9234;SDS011;4652;42.716;23.218;2023-05-10T03:36:45;5.83;;;5.20;;
9234;SDS011;4652;42.716;23.218;2023-05-10T03:43:27;8.30;;;6.77;;
9234;SDS011;4652;42.716;23.218;2023-05-10T03:50:09;7.97;;;6.70;;
9234;SDS011;4652;42.716;23.218;2023-05-10T03:56:53;6.63;;;5.57;;
9234;SDS011;4652;42.716;23.218;2023-05-10T04:03:34;8.50;;;6.80;;
9234;SDS011;4652;42.716;23.218;2023-05-10T04:10:16;7.13;;;6.43;;
9234;SDS011;4652;42.716;23.218;2023-05-10T04:16:59;7.60;;;5.20;;
9234;SDS011;4652;42.716;23.218;2023-05-10T04:23:41;9.20;;;7.20;;
9234;SDS011;4652;42.716;23.218;2023-05-10T04:30:23;9.87;;;8.63;;
9234;SDS011;4652;42.716;23.218;2023-05-10T04:37:06;10.80;;;7.80;;
9234;SDS011;4652;42.716;23.218;2023-05-10T04:43:48;10.43;;;8.00;;
9234;SDS011;4652;42.716;23.218;2023-05-10T04:50:30;9.87;;;8.87;;
9234;SDS011;4652;42.716;23.218;2023-05-10T04:57:14;7.77;;;6.97;;
9234;SDS011;4652;42.716;23.218;2023-05-10T05:03:56;9.63;;;8.27;;
9234;SDS011;4652;42.716;23.218;2023-05-10T05:10:38;9.90;;;8.90;;
9234;SDS011;4652;42.716;23.218;2023-05-10T05:17:21;10.93;;;8.30;;
9234;SDS011;4652;42.716;23.218;2023-05-10T05:24:03;9.93;;;8.70;;
9234;SDS011;4652;42.716;23.218;2023-05-10T05:30:46;9.00;;;8.07;;
9234;SDS011;4652;42.716;23.218;2023-05-10T05:37:30;9.00;;;8.00;;
9234;SDS011;4652;42.716;23.218;2023-05-10T05:44:12;11.20;;;10.10;;
9234;SDS011;4652;42.716;23.218;2023-05-10T05:50:54;11.07;;;9.43;;
9234;SDS011;4652;42.716;23.218;2023-05-10T05:57:38;13.57;;;10.60;;
9234;SDS011;4652;42.716;23.218;2023-05-10T06:04:20;14.50;;;11.47;;
9234;SDS011;4652;42.716;23.218;2023-05-10T06:11:02;12.10;;;10.80;;
9234;SDS011;4652;42.716;23.218;2023-05-10T06:17:45;12.73;;;11.23;;
9234;SDS011;4652;42.716;23.218;2023-05-10T06:24:29;13.93;;;10.67;;
9234;SDS011;4652;42.716;23.218;2023-05-10T06:31:11;11.70;;;9.70;;
9234;SDS011;4652;42.716;23.218;2023-05-10T06:37:54;11.47;;;9.63;;
9234;SDS011;4652;42.716;23.218;2023-05-10T06:44:36;13.17;;;9.77;;
9234;SDS011;4652;42.716;23.218;2023-05-10T06:51:18;9.27;;;8.10;;
9234;SDS011;4652;42.716;23.218;2023-05-10T06:58:02;12.43;;;10.60;;
9234;SDS011;4652;42.716;23.218;2023-05-10T08:11:42;16.53;;;10.60;;
9234;SDS011;4652;42.716;23.218;2023-05-10T08:18:24;12.27;;;10.33;;
9234;SDS011;4652;42.716;23.218;2023-05-10T08:25:06;14.07;;;12.13;;
9234;SDS011;4652;42.716;23.218;2023-05-10T08:31:50;15.77;;;11.30;;
9234;SDS011;4652;42.716;23.218;2023-05-10T08:38:32;13.30;;;7.73;;
9234;SDS011;4652;42.716;23.218;2023-05-10T08:45:14;11.20;;;7.33;;
9234;SDS011;4652;42.716;23.218;2023-05-10T08:51:59;9.70;;;8.70;;
9234;SDS011;4652;42.716;23.218;2023-05-10T08:58:44;11.77;;;8.57;;
9234;SDS011;4652;42.716;23.218;2023-05-10T09:05:27;11.80;;;9.90;;
9234;SDS011;4652;42.716;23.218;2023-05-10T09:12:10;10.43;;;8.90;;
9234;SDS011;4652;42.716;23.218;2023-05-10T09:18:55;11.90;;;10.80;;
9234;SDS011;4652;42.716;23.218;2023-05-10T09:25:37;11.60;;;10.33;;
9234;SDS011;4652;42.716;23.218;2023-05-10T09:32:21;11.90;;;9.10;;
9234;SDS011;4652;42.716;23.218;2023-05-10T09:39:03;10.40;;;8.73;;
9234;SDS011;4652;42.716;23.218;2023-05-10T09:45:45;10.77;;;7.27;;
9234;SDS011;4652;42.716;23.218;2023-05-10T09:52:31;11.23;;;10.00;;
9234;SDS011;4652;42.716;23.218;2023-05-10T09:59:28;11.83;;;10.73;;
9234;SDS011;4652;42.716;23.218;2023-05-10T10:06:11;12.57;;;10.63;;
9234;SDS011;4652;42.716;23.218;2023-05-10T10:13:01;8.73;;;7.93;;
9234;SDS011;4652;42.716;23.218;2023-05-10T10:19:44;11.07;;;9.97;;
9234;SDS011;4652;42.716;23.218;2023-05-10T10:26:28;10.97;;;9.87;;
9234;SDS011;4652;42.716;23.218;2023-05-10T10:33:23;8.77;;;7.67;;
9234;SDS011;4652;42.716;23.218;2023-05-10T10:40:24;8.83;;;7.87;;
9234;SDS011;4652;42.716;23.218;2023-05-10T10:47:10;11.30;;;10.10;;
9234;SDS011;4652;42.716;23.218;2023-05-10T10:54:11;9.90;;;8.87;;
9234;SDS011;4652;42.716;23.218;2023-05-10T11:00:53;11.13;;;9.90;;
9234;SDS011;4652;42.716;23.218;2023-05-10T11:07:51;9.60;;;8.80;;
9234;SDS011;4652;42.716;23.218;2023-05-10T11:14:35;9.77;;;8.73;;
9234;SDS011;4652;42.716;23.218;2023-05-10T11:21:17;9.70;;;8.57;;
9234;SDS011;4652;42.716;23.218;2023-05-10T11:27:59;10.73;;;9.37;;
9234;SDS011;4652;42.716;23.218;2023-05-10T13:45:01;9.37;;;8.33;;
9234;SDS011;4652;42.716;23.218;2023-05-10T13:51:43;12.40;;;9.43;;
9234;SDS011;4652;42.716;23.218;2023-05-10T13:58:26;11.07;;;9.90;;
9234;SDS011;4652;42.716;23.218;2023-05-10T14:05:09;10.90;;;9.40;;
9234;SDS011;4652;42.716;23.218;2023-05-10T14:11:51;11.47;;;9.07;;
9234;SDS011;4652;42.716;23.218;2023-05-10T14:18:33;10.17;;;9.17;;
9234;SDS011;4652;42.716;23.218;2023-05-10T14:25:16;11.80;;;9.17;;
9234;SDS011;4652;42.716;23.218;2023-05-10T14:31:59;13.27;;;8.90;;
9234;SDS011;4652;42.716;23.218;2023-05-10T14:38:41;11.20;;;9.27;;
9234;SDS011;4652;42.716;23.218;2023-05-10T14:45:24;13.20;;;10.57;;
9234;SDS011;4652;42.716;23.218;2023-05-10T14:52:06;12.57;;;10.00;;
9234;SDS011;4652;42.716;23.218;2023-05-10T14:59:06;13.40;;;11.00;;
9234;SDS011;4652;42.716;23.218;2023-05-10T15:05:49;11.83;;;8.30;;
9234;SDS011;4652;42.716;23.218;2023-05-10T15:12:31;12.13;;;10.23;;
9234;SDS011;4652;42.716;23.218;2023-05-10T15:19:13;11.67;;;7.60;;
9234;SDS011;4652;42.716;23.218;2023-05-10T15:25:57;11.53;;;9.43;;
9234;SDS011;4652;42.716;23.218;2023-05-10T15:32:39;11.67;;;10.57;;
9234;SDS011;4652;42.716;23.218;2023-05-10T15:39:22;10.93;;;9.40;;
9234;SDS011;4652;42.716;23.218;2023-05-10T15:46:06;10.07;;;9.07;;
9234;SDS011;4652;42.716;23.218;2023-05-10T15:52:48;10.43;;;9.33;;
9234;SDS011;4652;42.716;23.218;2023-05-10T15:59:31;10.87;;;8.87;;
9234;SDS011;4652;42.716;23.218;2023-05-10T16:06:16;9.43;;;8.40;;
9234;SDS011;4652;42.716;23.218;2023-05-10T16:12:58;9.63;;;8.33;;
9234;SDS011;4652;42.716;23.218;2023-05-10T16:19:41;11.00;;;9.57;;
9234;SDS011;4652;42.716;23.218;2023-05-10T16:26:24;11.50;;;10.27;;
9234;SDS011;4652;42.716;23.218;2023-05-10T16:33:06;10.70;;;9.60;;
9234;SDS011;4652;42.716;23.218;2023-05-10T16:39:48;11.73;;;10.53;;
9234;SDS011;4652;42.716;23.218;2023-05-10T16:46:32;9.57;;;8.40;;
9234;SDS011;4652;42.716;23.218;2023-05-10T16:53:14;11.70;;;10.50;;
9234;SDS011;4652;42.716;23.218;2023-05-10T16:59:56;12.40;;;10.47;;
9234;SDS011;4652;42.716;23.218;2023-05-10T17:06:39;12.53;;;11.23;;
9234;SDS011;4652;42.716;23.218;2023-05-10T17:13:21;12.30;;;9.47;;
9234;SDS011;4652;42.716;23.218;2023-05-10T17:20:04;13.17;;;11.00;;
9234;SDS011;4652;42.716;23.218;2023-05-10T17:26:48;13.13;;;11.83;;
9234;SDS011;4652;42.716;23.218;2023-05-10T17:33:30;11.80;;;10.60;;
9234;SDS011;4652;42.716;23.218;2023-05-10T17:40:12;11.73;;;10.03;;
9234;SDS011;4652;42.716;23.218;2023-05-10T17:46:55;11.03;;;10.00;;
9234;SDS011;4652;42.716;23.218;2023-05-10T17:53:37;10.07;;;9.03;;
9234;SDS011;4652;42.716;23.218;2023-05-10T18:00:22;20.50;;;8.50;;
9234;SDS011;4652;42.716;23.218;2023-05-10T18:07:05;8.00;;;7.17;;
9234;SDS011;4652;42.716;23.218;2023-05-10T18:13:47;11.67;;;8.67;;
9234;SDS011;4652;42.716;23.218;2023-05-10T18:20:29;8.87;;;8.07;;
9234;SDS011;4652;42.716;23.218;2023-05-10T18:27:13;11.10;;;8.50;;
9234;SDS011;4652;42.716;23.218;2023-05-10T18:33:56;9.33;;;8.37;;
9234;SDS011;4652;42.716;23.218;2023-05-10T18:40:37;9.53;;;8.07;;
9234;SDS011;4652;42.716;23.218;2023-05-10T18:47:21;8.87;;;7.97;;
9234;SDS011;4652;42.716;23.218;2023-05-10T18:54:05;10.30;;;8.67;;
9234;SDS011;4652;42.716;23.218;2023-05-10T19:13:35;8.03;;;6.63;;
9234;SDS011;4652;42.716;23.218;2023-05-10T19:20:17;10.43;;;8.70;;
9234;SDS011;4652;42.716;23.218;2023-05-10T19:26:59;10.57;;;8.67;;
9234;SDS011;4652;42.716;23.218;2023-05-10T19:33:42;9.03;;;8.13;;
9234;SDS011;4652;42.716;23.218;2023-05-10T19:40:24;10.33;;;8.40;;
9234;SDS011;4652;42.716;23.218;2023-05-10T19:47:07;9.57;;;8.57;;
9234;SDS011;4652;42.716;23.218;2023-05-10T19:53:52;8.90;;;8.10;;
9234;SDS011;4652;42.716;23.218;2023-05-10T20:00:34;9.23;;;8.27;;
9234;SDS011;4652;42.716;23.218;2023-05-10T20:07:16;8.03;;;7.23;;
9234;SDS011;4652;42.716;23.218;2023-05-10T20:13:59;9.47;;;8.50;;
9234;SDS011;4652;42.716;23.218;2023-05-10T20:20:41;11.40;;;9.20;;
9234;SDS011;4652;42.716;23.218;2023-05-10T20:27:23;11.43;;;10.23;;
9234;SDS011;4652;42.716;23.218;2023-05-10T20:34:06;10.20;;;9.23;;
9234;SDS011;4652;42.716;23.218;2023-05-10T20:40:48;10.47;;;9.43;;
9234;SDS011;4652;42.716;23.218;2023-05-10T20:47:30;10.67;;;9.57;;
9234;SDS011;4652;42.716;23.218;2023-05-10T20:54:14;10.60;;;9.53;;
9234;SDS011;4652;42.716;23.218;2023-05-10T21:00:56;8.03;;;7.23;;
9234;SDS011;4652;42.716;23.218;2023-05-10T21:07:37;10.33;;;9.33;;
9234;SDS011;4652;42.716;23.218;2023-05-10T21:14:21;10.73;;;9.70;;
9234;SDS011;4652;42.716;23.218;2023-05-10T21:21:03;11.27;;;10.03;;
9234;SDS011;4652;42.716;23.218;2023-05-10T21:27:44;10.57;;;8.17;;
9234;SDS011;4652;42.716;23.218;2023-05-10T21:34:28;10.83;;;9.83;;
9234;SDS011;4652;42.716;23.218;2023-05-10T21:41:10;10.80;;;9.27;;
9234;SDS011;4652;42.716;23.218;2023-05-10T21:47:52;10.53;;;9.53;;
9234;SDS011;4652;42.716;23.218;2023-05-10T21:54:35;8.60;;;7.63;;
9234;SDS011;4652;42.716;23.218;2023-05-10T22:01:18;10.23;;;9.03;;
9234;SDS011;4652;42.716;23.218;2023-05-10T22:08:00;10.60;;;9.50;;
9234;SDS011;4652;42.716;23.218;2023-05-10T22:14:43;10.27;;;8.77;;
9234;SDS011;4652;42.716;23.218;2023-05-10T22:21:25;8.17;;;7.37;;
9234;SDS011;4652;42.716;23.218;2023-05-10T22:28:07;10.97;;;9.87;;
9234;SDS011;4652;42.716;23.218;2023-05-10T22:34:50;8.50;;;7.60;;
9234;SDS011;4652;42.716;23.218;2023-05-10T22:41:32;10.47;;;9.47;;
9234;SDS011;4652;42.716;23.218;2023-05-10T22:48:14;10.13;;;9.10;;
9234;SDS011;4652;42.716;23.218;2023-05-10T22:54:58;9.50;;;8.57;;
9234;SDS011;4652;42.716;23.218;2023-05-10T23:01:39;11.10;;;10.00;;
9234;SDS011;4652;42.716;23.218;2023-05-10T23:08:21;12.13;;;10.83;;
9234;SDS011;4652;42.716;23.218;2023-05-10T23:15:05;13.13;;;11.73;;
9234;SDS011;4652;42.716;23.218;2023-05-10T23:21:48;11.33;;;10.13;;
9234;SDS011;4652;42.716;23.218;2023-05-10T23:28:30;12.80;;;10.83;;
9234;SDS011;4652;42.716;23.218;2023-05-10T23:35:13;12.53;;;11.23;;
9234;SDS011;4652;42.716;23.218;2023-05-10T23:41:55;10.87;;;9.60;;
9234;SDS011;4652;42.716;23.218;2023-05-10T23:48:37;10.87;;;9.77;;
9234;SDS011;4652;42.716;23.218;2023-05-10T23:55:20;12.07;;;9.47;;
